Terminal Aerodrome Forecast
Issued by NWS Greer, SC

Home | Current Version | Previous Version | Text Only | Print | Product List | Glossary On
Versions: 1 2 3 4 5 6 7 8 9 10 11 12 13
764
FTUS42 KGSP 151122
TAFGSP
TAF
KGSP 151122Z 1512/1612 03004KT P6SM SCT200
     FM151600 28005KT P6SM SCT200
     FM152300 32006KT P6SM SCT200
     FM160600 VRB02KT P6SM SKC=

USA.gov is the U.S. government's official web portal to all federal, state and local government web resources and services.